Time;durP1;ratioP1;P1;durP2;ratioP2;P2;SDS_P1;SDS_P2;PMS_P1;PMS_P2;Temp;Humidity;BMP_temperature;BMP_pressure;BME280_temperature;BME280_humidity;BME280_pressure;Samples;Min_cycle;Max_cycle;Signal;HPM_P1;HPM_P2
2022/07/11 00:00:10;;;;;;;58.83;29.30;;;;;;;;;;1612063;30;22124;-62
2022/07/11 00:01:01;;;;;;;56.13;28.77;;;;;;;;;;1609863;30;22538;-62
2022/07/11 00:01:56;;;;;;;62.00;29.23;;;;;;;;;;1608533;30;21734;-62
2022/07/11 00:02:47;;;;;;;50.95;28.17;;;;;;;;;;1610662;30;21667;-62
2022/07/11 00:03:39;;;;;;;46.67;25.13;;;;;;;;;;1609045;30;22901;-62
2022/07/11 00:04:31;;;;;;;48.70;27.63;;;;;;;;;;1609783;30;22433;-63
2022/07/11 00:05:24;;;;;;;56.40;28.63;;;;;;;;;;1610791;30;22066;-61
2022/07/11 00:06:15;;;;;;;49.50;28.15;;;;;;;;;;1608904;30;21701;-62
2022/07/11 00:07:08;;;;;;;54.08;26.95;;;;;;;;;;1612509;30;22627;-61
2022/07/11 00:07:59;;;;;;;48.60;27.13;;;;;;;;;;1608730;30;22613;-62
2022/07/11 00:08:51;;;;;;;58.83;27.98;;;;;;;;;;1611946;30;21625;-63
2022/07/11 00:09:42;;;;;;;56.88;26.55;;;;;;;;;;1608430;30;21696;-62
2022/07/11 00:10:35;;;;;;;50.05;26.42;;;;;;;;;;1609969;30;22506;-61
2022/07/11 00:11:26;;;;;;;49.05;26.48;;;;;;;;;;1608471;30;21604;-62
2022/07/11 00:12:20;;;;;;;48.53;26.27;;;;;;;;;;1611423;30;21554;-61
2022/07/11 00:13:11;;;;;;;49.15;26.42;;;;;;;;;;1606603;30;21619;-61
2022/07/11 00:14:03;;;;;;;40.92;25.63;;;;;;;;;;1610015;30;21997;-62
2022/07/11 00:14:57;;;;;;;43.92;25.02;;;;;;;;;;1610152;30;21680;-62
2022/07/11 00:15:50;;;;;;;50.28;24.83;;;;;;;;;;1609373;30;21717;-62
2022/07/11 00:16:41;;;;;;;46.00;24.15;;;;;;;;;;1612621;30;21621;-62
2022/07/11 00:17:33;;;;;;;43.25;24.73;;;;;;;;;;1610376;30;22314;-62
2022/07/11 00:18:25;;;;;;;44.05;25.27;;;;;;;;;;1607417;30;21947;-61
2022/07/11 00:19:18;;;;;;;50.22;26.20;;;;;;;;;;1611353;30;21616;-61
2022/07/11 00:20:10;;;;;;;49.47;25.15;;;;;;;;;;1610927;30;21936;-62
2022/07/11 00:21:03;;;;;;;42.22;23.98;;;;;;;;;;1606479;30;21983;-62
2022/07/11 00:21:54;;;;;;;41.58;23.77;;;;;;;;;;1612216;30;22315;-62
2022/07/11 00:22:46;;;;;;;44.88;24.45;;;;;;;;;;1608140;30;22202;-62
2022/07/11 00:23:37;;;;;;;46.95;23.98;;;;;;;;;;1607040;30;21695;-62
2022/07/11 00:24:30;;;;;;;43.88;23.27;;;;;;;;;;1608332;30;22479;-62
2022/07/11 00:25:21;;;;;;;38.67;22.38;;;;;;;;;;1607787;30;22288;-62
2022/07/11 00:26:13;;;;;;;46.80;24.38;;;;;;;;;;1608259;30;21667;-63
2022/07/11 00:27:05;;;;;;;41.20;22.83;;;;;;;;;;1610815;30;21683;-61
2022/07/11 00:27:57;;;;;;;38.22;22.73;;;;;;;;;;1609400;30;22282;-61
2022/07/11 00:28:49;;;;;;;41.05;22.48;;;;;;;;;;1610553;30;21704;-62
2022/07/11 00:29:41;;;;;;;40.40;22.38;;;;;;;;;;1602698;30;21625;-62
2022/07/11 00:30:33;;;;;;;39.53;22.90;;;;;;;;;;1600784;30;21740;-62
2022/07/11 00:31:25;;;;;;;44.65;22.55;;;;;;;;;;1607782;30;22446;-62
2022/07/11 00:32:17;;;;;;;39.05;22.38;;;;;;;;;;1604276;30;21846;-63
2022/07/11 00:33:08;;;;;;;36.30;21.90;;;;;;;;;;1612544;30;22582;-63
2022/07/11 00:33:59;;;;;;;39.00;20.52;;;;;;;;;;1607946;30;21724;-62
2022/07/11 00:34:52;;;;;;;37.78;20.35;;;;;;;;;;1608626;30;22379;-62
2022/07/11 00:35:43;;;;;;;36.35;20.00;;;;;;;;;;1611708;30;22054;-63
2022/07/11 00:36:35;;;;;;;31.80;19.90;;;;;;;;;;1610279;30;22332;-62
2022/07/11 00:37:26;;;;;;;30.55;19.63;;;;;;;;;;1613015;30;21616;-63
2022/07/11 00:38:18;;;;;;;37.88;19.73;;;;;;;;;;1611147;30;21628;-62
2022/07/11 00:39:10;;;;;;;31.08;19.77;;;;;;;;;;1609662;30;22627;-62
2022/07/11 00:40:02;;;;;;;34.85;19.83;;;;;;;;;;1605765;30;21717;-62
2022/07/11 00:40:54;;;;;;;43.33;20.08;;;;;;;;;;1610778;30;22072;-62
2022/07/11 00:41:46;;;;;;;29.50;18.88;;;;;;;;;;1611587;30;21649;-62
2022/07/11 00:42:38;;;;;;;28.05;19.08;;;;;;;;;;1611282;30;22270;-62
2022/07/11 00:43:34;;;;;;;28.40;18.65;;;;;;;;;;1610954;30;22363;-62
2022/07/11 00:44:25;;;;;;;34.30;17.98;;;;;;;;;;1602746;30;21914;-62
2022/07/11 00:45:17;;;;;;;27.58;18.75;;;;;;;;;;1609027;30;21617;-63
2022/07/11 00:46:11;;;;;;;25.52;17.52;;;;;;;;;;1609055;30;21825;-61
2022/07/11 00:47:04;;;;;;;23.23;17.15;;;;;;;;;;1609836;30;21992;-62
2022/07/11 00:47:56;;;;;;;35.97;18.73;;;;;;;;;;1609884;30;21676;-62
2022/07/11 00:48:49;;;;;;;35.15;18.83;;;;;;;;;;1610367;30;21620;-62
2022/07/11 00:49:40;;;;;;;30.80;18.33;;;;;;;;;;1609397;30;22295;-62
2022/07/11 00:50:32;;;;;;;24.50;17.65;;;;;;;;;;1611024;30;22094;-62
2022/07/11 00:51:24;;;;;;;24.80;16.58;;;;;;;;;;1610820;30;21995;-63
2022/07/11 00:52:16;;;;;;;25.90;16.63;;;;;;;;;;1609402;30;21630;-62
2022/07/11 00:53:08;;;;;;;26.23;17.35;;;;;;;;;;1611719;30;21724;-62
2022/07/11 00:54:02;;;;;;;35.70;17.65;;;;;;;;;;1607006;30;21966;-62
2022/07/11 00:54:54;;;;;;;24.63;16.92;;;;;;;;;;1610872;30;22053;-63
2022/07/11 00:55:48;;;;;;;24.13;16.98;;;;;;;;;;1610140;30;21608;-62
2022/07/11 00:56:39;;;;;;;23.10;16.80;;;;;;;;;;1609675;30;22062;-62
2022/07/11 00:57:32;;;;;;;28.42;16.48;;;;;;;;;;1610462;30;21674;-63
2022/07/11 00:58:23;;;;;;;26.83;17.48;;;;;;;;;;1609903;30;21708;-63
2022/07/11 00:59:19;;;;;;;21.05;16.88;;;;;;;;;;1609881;30;21568;-62
2022/07/11 01:00:12;;;;;;;24.27;16.13;;;;;;;;;;1609448;30;22047;-62
2022/07/11 01:01:05;;;;;;;18.40;16.35;;;;;;;;;;1609989;30;21661;-62
2022/07/11 01:01:58;;;;;;;22.48;15.82;;;;;;;;;;1609734;30;22265;-62
2022/07/11 01:02:50;;;;;;;21.60;14.98;;;;;;;;;;1608325;30;22636;-63
2022/07/11 01:03:41;;;;;;;23.67;15.65;;;;;;;;;;1611675;30;21634;-62
2022/07/11 01:04:34;;;;;;;22.05;15.98;;;;;;;;;;1609652;30;21712;-62
2022/07/11 01:05:25;;;;;;;26.80;15.45;;;;;;;;;;1611024;30;21625;-62
2022/07/11 01:06:18;;;;;;;25.20;15.95;;;;;;;;;;1608989;30;22653;-62
2022/07/11 01:07:09;;;;;;;20.50;15.30;;;;;;;;;;1611041;30;21601;-62
2022/07/11 01:08:01;;;;;;;19.80;15.30;;;;;;;;;;1607232;30;22625;-62
2022/07/11 01:08:52;;;;;;;18.17;15.52;;;;;;;;;;1603428;30;22316;-63
2022/07/11 01:09:45;;;;;;;20.15;14.35;;;;;;;;;;1602853;30;21680;-62
2022/07/11 01:10:36;;;;;;;19.95;14.52;;;;;;;;;;1607274;30;21656;-62
2022/07/11 01:11:28;;;;;;;16.25;12.95;;;;;;;;;;1610551;30;21672;-62
2022/07/11 01:12:20;;;;;;;21.60;14.55;;;;;;;;;;1610149;30;21638;-62
2022/07/11 01:13:13;;;;;;;20.77;13.82;;;;;;;;;;1607607;30;21650;-63
2022/07/11 01:14:04;;;;;;;28.42;14.10;;;;;;;;;;1611710;30;22506;-63
2022/07/11 01:14:57;;;;;;;18.38;14.32;;;;;;;;;;1607985;30;21914;-62
2022/07/11 01:15:48;;;;;;;17.05;13.40;;;;;;;;;;1606200;30;21778;-62
2022/07/11 01:16:41;;;;;;;20.50;13.75;;;;;;;;;;1609164;30;21934;-63
2022/07/11 01:17:34;;;;;;;16.20;13.07;;;;;;;;;;1609399;30;21725;-62
2022/07/11 01:18:25;;;;;;;22.10;13.88;;;;;;;;;;1608816;30;21703;-62
2022/07/11 01:19:17;;;;;;;17.38;13.35;;;;;;;;;;1611175;30;22688;-62
2022/07/11 01:20:09;;;;;;;19.02;13.70;;;;;;;;;;1610356;30;22516;-62
2022/07/11 01:21:03;;;;;;;13.80;12.27;;;;;;;;;;1608464;30;22328;-62
2022/07/11 01:21:59;;;;;;;19.23;12.43;;;;;;;;;;1611401;30;22047;-63
2022/07/11 01:22:54;;;;;;;22.13;12.90;;;;;;;;;;1606966;30;21943;-62
2022/07/11 01:23:47;;;;;;;14.00;12.68;;;;;;;;;;1610285;30;21629;-63
2022/07/11 01:24:40;;;;;;;17.35;13.13;;;;;;;;;;1612874;30;21647;-62
2022/07/11 01:25:31;;;;;;;19.52;12.63;;;;;;;;;;1611152;30;21916;-63
2022/07/11 01:26:25;;;;;;;13.15;11.88;;;;;;;;;;1608093;30;22393;-62
2022/07/11 01:27:16;;;;;;;17.58;12.90;;;;;;;;;;1610363;30;22081;-62
2022/07/11 01:28:10;;;;;;;16.65;12.98;;;;;;;;;;1608649;30;21603;-63
2022/07/11 01:29:09;;;;;;;13.48;12.07;;;;;;;;;;1609884;30;21627;-61
2022/07/11 01:30:01;;;;;;;13.80;11.77;;;;;;;;;;1613062;30;22109;-63
2022/07/11 01:30:52;;;;;;;13.02;11.75;;;;;;;;;;1608985;30;21787;-63
2022/07/11 01:31:45;;;;;;;14.73;12.38;;;;;;;;;;1608665;30;22565;-62
2022/07/11 01:32:37;;;;;;;17.33;12.23;;;;;;;;;;1607007;30;21614;-61
2022/07/11 01:33:32;;;;;;;13.73;12.32;;;;;;;;;;1610378;30;22320;-62
2022/07/11 01:34:24;;;;;;;18.25;12.18;;;;;;;;;;1610277;30;22447;-61
2022/07/11 01:35:16;;;;;;;15.40;12.85;;;;;;;;;;1609566;30;21637;-63
2022/07/11 01:36:07;;;;;;;17.10;11.60;;;;;;;;;;1610271;30;22187;-62
2022/07/11 01:36:59;;;;;;;13.55;11.38;;;;;;;;;;1607840;30;22260;-61
2022/07/11 01:37:51;;;;;;;12.60;11.40;;;;;;;;;;1608637;30;22235;-62
2022/07/11 01:38:43;;;;;;;13.00;11.05;;;;;;;;;;1610451;30;22075;-61
2022/07/11 01:39:36;;;;;;;13.13;11.10;;;;;;;;;;1609914;30;21690;-61
2022/07/11 01:40:28;;;;;;;12.20;10.63;;;;;;;;;;1608571;30;21738;-62
2022/07/11 01:41:19;;;;;;;12.40;11.25;;;;;;;;;;1609124;30;21610;-61
2022/07/11 01:42:12;;;;;;;17.25;11.73;;;;;;;;;;1607636;30;21739;-62
2022/07/11 01:43:03;;;;;;;12.13;10.98;;;;;;;;;;1607507;30;22330;-62
2022/07/11 01:43:54;;;;;;;12.43;11.18;;;;;;;;;;1612938;30;21724;-62
2022/07/11 01:44:46;;;;;;;12.98;11.10;;;;;;;;;;1609363;30;21619;-61
2022/07/11 01:45:37;;;;;;;12.55;10.55;;;;;;;;;;1609225;30;21811;-62
2022/07/11 01:46:30;;;;;;;10.98;9.88;;;;;;;;;;1610064;30;21615;-62
2022/07/11 01:47:21;;;;;;;11.02;9.90;;;;;;;;;;1610165;30;21633;-62
2022/07/11 01:48:14;;;;;;;13.82;10.32;;;;;;;;;;1608827;30;22063;-62
2022/07/11 01:49:05;;;;;;;13.85;11.40;;;;;;;;;;1609865;30;21703;-62
2022/07/11 01:49:57;;;;;;;11.43;10.27;;;;;;;;;;1609002;30;21612;-62
2022/07/11 01:50:49;;;;;;;11.15;10.05;;;;;;;;;;1609451;30;21695;-62
2022/07/11 01:51:41;;;;;;;12.07;10.95;;;;;;;;;;1608270;30;21956;-61
2022/07/11 01:52:33;;;;;;;10.82;9.90;;;;;;;;;;1598914;30;21671;-62
2022/07/11 01:53:25;;;;;;;11.63;10.63;;;;;;;;;;1601876;30;21652;-62
2022/07/11 01:54:16;;;;;;;11.27;10.38;;;;;;;;;;1607321;30;22042;-61
2022/07/11 01:55:11;;;;;;;10.07;9.18;;;;;;;;;;1608224;30;21891;-62
2022/07/11 01:56:03;;;;;;;12.23;9.93;;;;;;;;;;1607935;30;22420;-62
2022/07/11 01:56:56;;;;;;;11.23;10.15;;;;;;;;;;1610581;30;21661;-62
2022/07/11 01:57:47;;;;;;;10.90;10.05;;;;;;;;;;1616035;30;21683;-61
2022/07/11 01:58:39;;;;;;;11.60;9.55;;;;;;;;;;1612114;30;21695;-62
2022/07/11 01:59:30;;;;;;;11.18;10.00;;;;;;;;;;1611105;30;21611;-62
2022/07/11 02:00:23;;;;;;;12.95;10.18;;;;;;;;;;1611004;30;22421;-61
2022/07/11 02:01:15;;;;;;;12.05;9.88;;;;;;;;;;1611202;30;22345;-63
2022/07/11 02:02:08;;;;;;;12.75;10.68;;;;;;;;;;1609945;30;22308;-63
2022/07/11 02:02:59;;;;;;;10.32;9.40;;;;;;;;;;1608765;30;22393;-62
2022/07/11 02:03:51;;;;;;;10.75;9.85;;;;;;;;;;1613905;30;21638;-62
2022/07/11 02:04:43;;;;;;;10.45;9.55;;;;;;;;;;1610492;30;21952;-62
2022/07/11 02:05:37;;;;;;;10.63;9.70;;;;;;;;;;1611348;30;22369;-62
2022/07/11 02:06:29;;;;;;;11.73;10.15;;;;;;;;;;1610792;30;21600;-62
2022/07/11 02:08:11;;;;;;;13.48;9.90;;;;;;;;;;1606381;30;22432;-63
2022/07/11 02:08:33;;;;;;;10.88;8.70;;;;;;;;;;1610513;30;21905;-61
2022/07/11 02:09:26;;;;;;;11.60;9.30;;;;;;;;;;1609699;30;21990;-62
2022/07/11 02:10:18;;;;;;;10.15;9.20;;;;;;;;;;1607078;30;21637;-62
2022/07/11 02:11:10;;;;;;;10.50;9.60;;;;;;;;;;1611854;30;21669;-62
2022/07/11 02:12:02;;;;;;;9.88;9.05;;;;;;;;;;1611814;30;21638;-63
2022/07/11 02:12:53;;;;;;;9.88;9.10;;;;;;;;;;1606415;30;22064;-63
2022/07/11 02:13:46;;;;;;;9.35;8.65;;;;;;;;;;1610840;30;21606;-62
2022/07/11 02:14:37;;;;;;;12.98;9.50;;;;;;;;;;1611277;30;21678;-62
2022/07/11 02:15:30;;;;;;;12.63;9.95;;;;;;;;;;1607593;30;21615;-63
2022/07/11 02:16:22;;;;;;;13.52;8.98;;;;;;;;;;1609055;30;22033;-62
2022/07/11 02:17:14;;;;;;;9.20;8.35;;;;;;;;;;1607211;30;21639;-62
2022/07/11 02:18:06;;;;;;;10.25;9.35;;;;;;;;;;1609368;30;21682;-62
2022/07/11 02:18:58;;;;;;;9.27;8.15;;;;;;;;;;1611557;30;21754;-63
2022/07/11 02:19:49;;;;;;;9.60;8.75;;;;;;;;;;1608331;30;21608;-62
2022/07/11 02:20:42;;;;;;;8.82;8.13;;;;;;;;;;1609537;30;22250;-63
2022/07/11 02:21:34;;;;;;;9.38;8.48;;;;;;;;;;1608400;30;22090;-64
2022/07/11 02:22:27;;;;;;;9.68;8.32;;;;;;;;;;1605845;30;22025;-62
2022/07/11 02:23:19;;;;;;;9.98;8.65;;;;;;;;;;1608818;30;22268;-63
2022/07/11 02:24:11;;;;;;;9.30;8.50;;;;;;;;;;1608234;30;21584;-63
2022/07/11 02:25:03;;;;;;;11.95;9.25;;;;;;;;;;1610687;30;21721;-63
2022/07/11 02:25:57;;;;;;;9.23;8.43;;;;;;;;;;1607430;30;22719;-61
2022/07/11 02:26:48;;;;;;;13.20;9.10;;;;;;;;;;1611015;30;21639;-61
2022/07/11 02:27:40;;;;;;;9.18;8.50;;;;;;;;;;1607979;30;21651;-61
2022/07/11 02:28:34;;;;;;;9.93;8.98;;;;;;;;;;1608108;30;22422;-61
2022/07/11 02:29:25;;;;;;;9.65;8.85;;;;;;;;;;1609653;30;21821;-61
2022/07/11 02:30:17;;;;;;;10.43;8.40;;;;;;;;;;1608784;30;21630;-61
2022/07/11 02:31:08;;;;;;;8.90;8.15;;;;;;;;;;1609029;30;21803;-62
2022/07/11 02:32:01;;;;;;;9.10;8.32;;;;;;;;;;1609303;30;21575;-62
2022/07/11 02:32:53;;;;;;;8.88;8.07;;;;;;;;;;1609437;30;21679;-62
2022/07/11 02:33:45;;;;;;;9.63;8.75;;;;;;;;;;1608617;30;21800;-61
2022/07/11 02:34:37;;;;;;;9.60;8.60;;;;;;;;;;1611100;30;22254;-62
2022/07/11 02:35:29;;;;;;;8.95;8.15;;;;;;;;;;1604863;30;22277;-61
2022/07/11 02:36:20;;;;;;;8.65;7.95;;;;;;;;;;1602290;30;21995;-61
2022/07/11 02:37:12;;;;;;;9.93;7.80;;;;;;;;;;1606496;30;21610;-60
2022/07/11 02:38:03;;;;;;;9.27;7.25;;;;;;;;;;1611031;30;21579;-62
2022/07/11 02:38:56;;;;;;;8.77;7.93;;;;;;;;;;1608883;30;22583;-62
2022/07/11 02:39:48;;;;;;;8.13;7.47;;;;;;;;;;1608896;30;21721;-62
2022/07/11 02:40:40;;;;;;;9.95;7.80;;;;;;;;;;1608957;30;22257;-61
2022/07/11 02:41:33;;;;;;;8.63;7.80;;;;;;;;;;1609479;30;22187;-61
2022/07/11 02:42:25;;;;;;;8.10;7.35;;;;;;;;;;1606621;30;22001;-61
2022/07/11 02:43:16;;;;;;;8.57;7.88;;;;;;;;;;1608245;30;21611;-62
2022/07/11 02:44:08;;;;;;;9.75;8.02;;;;;;;;;;1610612;30;21794;-62
2022/07/11 02:44:59;;;;;;;9.38;7.57;;;;;;;;;;1608750;30;21688;-61
2022/07/11 02:45:52;;;;;;;8.63;7.93;;;;;;;;;;1606457;30;21658;-62
2022/07/11 02:46:43;;;;;;;14.38;7.05;;;;;;;;;;1607077;30;21567;-61
2022/07/11 02:47:36;;;;;;;7.90;7.30;;;;;;;;;;1609687;30;21878;-61
2022/07/11 02:48:28;;;;;;;8.82;8.13;;;;;;;;;;1604939;30;22875;-61
2022/07/11 02:49:19;;;;;;;8.85;7.38;;;;;;;;;;1611873;30;21559;-61
2022/07/11 02:50:13;;;;;;;7.88;7.25;;;;;;;;;;1610561;30;21693;-61
2022/07/11 02:51:05;;;;;;;8.55;7.75;;;;;;;;;;1606433;30;22635;-61
2022/07/11 02:51:57;;;;;;;8.13;7.47;;;;;;;;;;1609743;30;21769;-62
2022/07/11 02:52:48;;;;;;;7.95;7.03;;;;;;;;;;1606674;30;22470;-61
2022/07/11 02:53:40;;;;;;;8.43;7.63;;;;;;;;;;1610326;30;21557;-61
2022/07/11 02:54:32;;;;;;;8.63;7.60;;;;;;;;;;1615064;30;21753;-61
2022/07/11 02:55:24;;;;;;;7.93;7.32;;;;;;;;;;1610353;30;21576;-62
2022/07/11 02:56:15;;;;;;;11.93;7.80;;;;;;;;;;1607791;30;21865;-61
2022/07/11 02:57:08;;;;;;;9.18;6.85;;;;;;;;;;1610991;30;21609;-62
2022/07/11 02:58:00;;;;;;;10.45;7.68;;;;;;;;;;1610579;30;21677;-61
2022/07/11 02:58:51;;;;;;;7.47;6.97;;;;;;;;;;1613663;30;21734;-61
2022/07/11 02:59:44;;;;;;;7.70;7.20;;;;;;;;;;1608347;30;21636;-61
2022/07/11 03:00:35;;;;;;;8.70;7.93;;;;;;;;;;1611531;30;22446;-61
2022/07/11 03:01:27;;;;;;;7.38;6.78;;;;;;;;;;1608584;30;21639;-61
2022/07/11 03:02:19;;;;;;;10.00;7.50;;;;;;;;;;1604691;30;22049;-62
2022/07/11 03:03:11;;;;;;;7.68;7.18;;;;;;;;;;1612460;30;21780;-62
2022/07/11 03:04:03;;;;;;;8.35;7.13;;;;;;;;;;1602271;30;22265;-61
2022/07/11 03:04:57;;;;;;;7.32;6.85;;;;;;;;;;1606368;30;22552;-61
2022/07/11 03:05:48;;;;;;;8.05;7.35;;;;;;;;;;1611943;30;22028;-61
2022/07/11 03:06:41;;;;;;;9.45;6.50;;;;;;;;;;1611358;30;21562;-61
2022/07/11 03:07:32;;;;;;;8.90;6.70;;;;;;;;;;1607555;30;21717;-61
2022/07/11 03:08:24;;;;;;;7.30;6.78;;;;;;;;;;1611632;30;21839;-62
2022/07/11 03:09:15;;;;;;;8.38;7.78;;;;;;;;;;1608180;30;21857;-61
2022/07/11 03:10:09;;;;;;;8.02;7.10;;;;;;;;;;1605833;30;21925;-61
2022/07/11 03:11:01;;;;;;;8.30;7.50;;;;;;;;;;1609903;30;22361;-61
2022/07/11 03:11:52;;;;;;;7.78;7.18;;;;;;;;;;1611424;30;21599;-62
2022/07/11 03:12:46;;;;;;;12.95;7.07;;;;;;;;;;1608259;30;21668;-62
2022/07/11 03:13:37;;;;;;;7.00;6.40;;;;;;;;;;1614864;30;21864;-61
2022/07/11 03:14:29;;;;;;;6.82;6.32;;;;;;;;;;1609114;30;21680;-62
2022/07/11 03:15:21;;;;;;;7.40;6.90;;;;;;;;;;1605967;30;21936;-61
2022/07/11 03:16:13;;;;;;;7.35;6.72;;;;;;;;;;1609773;30;21657;-61
2022/07/11 03:17:04;;;;;;;7.28;6.68;;;;;;;;;;1601570;30;22535;-62
2022/07/11 03:17:57;;;;;;;7.40;6.78;;;;;;;;;;1613060;30;22173;-61
2022/07/11 03:18:48;;;;;;;7.28;6.68;;;;;;;;;;1610322;30;22832;-61
2022/07/11 03:19:39;;;;;;;6.63;6.13;;;;;;;;;;1610886;30;21618;-62
2022/07/11 03:20:31;;;;;;;10.05;6.60;;;;;;;;;;1609556;30;22001;-62
2022/07/11 03:21:23;;;;;;;6.82;6.32;;;;;;;;;;1609561;30;22106;-61
2022/07/11 03:22:15;;;;;;;7.70;7.20;;;;;;;;;;1609446;30;22563;-62
2022/07/11 03:23:06;;;;;;;7.28;6.60;;;;;;;;;;1608950;30;22027;-62
2022/07/11 03:23:59;;;;;;;7.90;7.05;;;;;;;;;;1609268;30;22240;-61
2022/07/11 03:24:50;;;;;;;7.70;6.97;;;;;;;;;;1611586;30;22120;-62
2022/07/11 03:25:43;;;;;;;7.05;6.55;;;;;;;;;;1604479;30;21615;-60
2022/07/11 03:26:34;;;;;;;7.10;6.60;;;;;;;;;;1601832;30;21988;-61
2022/07/11 03:27:26;;;;;;;6.63;6.13;;;;;;;;;;1607254;30;22752;-61
2022/07/11 03:28:18;;;;;;;7.78;7.13;;;;;;;;;;1607956;30;22212;-62
2022/07/11 03:29:11;;;;;;;7.38;6.68;;;;;;;;;;1607986;30;22190;-62
2022/07/11 03:30:03;;;;;;;7.07;6.57;;;;;;;;;;1608631;30;21620;-61
2022/07/11 03:30:55;;;;;;;7.18;6.60;;;;;;;;;;1613970;30;22068;-61
2022/07/11 03:31:47;;;;;;;7.22;6.63;;;;;;;;;;1611078;30;21703;-62
2022/07/11 03:32:39;;;;;;;6.97;6.38;;;;;;;;;;1611077;30;21549;-61
2022/07/11 03:33:30;;;;;;;6.32;5.93;;;;;;;;;;1612185;30;21629;-61
2022/07/11 03:34:22;;;;;;;6.65;6.05;;;;;;;;;;1612753;30;21625;-60
2022/07/11 03:36:24;;;;;;;7.13;6.63;;;;;;;;;;1607157;30;22446;-62
2022/07/11 03:37:15;;;;;;;7.30;6.75;;;;;;;;;;1611878;30;21584;-61
2022/07/11 03:38:07;;;;;;;6.70;6.30;;;;;;;;;;1605030;30;21656;-62
2022/07/11 03:38:58;;;;;;;7.13;6.53;;;;;;;;;;1611367;30;21602;-61
2022/07/11 03:39:51;;;;;;;7.60;7.00;;;;;;;;;;1610780;30;21595;-61
2022/07/11 03:40:42;;;;;;;6.90;5.95;;;;;;;;;;1609476;30;21907;-61
2022/07/11 03:41:34;;;;;;;8.52;5.90;;;;;;;;;;1610993;30;21709;-60
2022/07/11 03:42:26;;;;;;;7.25;6.45;;;;;;;;;;1608139;30;22070;-62
2022/07/11 03:43:20;;;;;;;9.13;6.80;;;;;;;;;;1608281;30;22125;-61
2022/07/11 03:44:11;;;;;;;7.47;6.93;;;;;;;;;;1610943;30;22422;-61
2022/07/11 03:45:03;;;;;;;10.75;6.00;;;;;;;;;;1611816;30;21830;-61
2022/07/11 03:45:55;;;;;;;7.55;7.05;;;;;;;;;;1607069;30;21659;-62
2022/07/11 03:46:47;;;;;;;6.82;6.35;;;;;;;;;;1610743;30;21593;-63
2022/07/11 03:47:39;;;;;;;6.72;6.25;;;;;;;;;;1609994;30;22683;-62
2022/07/11 03:48:31;;;;;;;6.68;6.03;;;;;;;;;;1613404;30;21661;-62
2022/07/11 03:49:22;;;;;;;8.68;6.75;;;;;;;;;;1612046;30;21689;-62
2022/07/11 03:50:15;;;;;;;7.60;6.90;;;;;;;;;;1611268;30;21562;-62
2022/07/11 03:51:06;;;;;;;6.95;6.45;;;;;;;;;;1611270;30;21796;-62
2022/07/11 03:51:58;;;;;;;6.95;6.30;;;;;;;;;;1610604;30;21748;-61
2022/07/11 03:52:49;;;;;;;6.20;5.80;;;;;;;;;;1606064;30;21945;-62
2022/07/11 03:53:41;;;;;;;7.20;6.60;;;;;;;;;;1612587;30;22728;-62
2022/07/11 03:54:33;;;;;;;6.80;6.30;;;;;;;;;;1612238;30;21617;-62
2022/07/11 03:55:25;;;;;;;6.75;6.15;;;;;;;;;;1601735;30;21639;-62
2022/07/11 03:56:20;;;;;;;6.90;6.15;;;;;;;;;;1597405;30;21680;-62
2022/07/11 03:57:12;;;;;;;6.25;5.85;;;;;;;;;;1608636;30;21654;-63
2022/07/11 03:58:03;;;;;;;6.35;5.90;;;;;;;;;;1607666;30;22107;-62
2022/07/11 03:58:57;;;;;;;7.40;6.53;;;;;;;;;;1614430;30;21603;-61
2022/07/11 03:59:48;;;;;;;6.47;6.07;;;;;;;;;;1616141;30;22697;-62
2022/07/11 04:00:39;;;;;;;6.80;6.32;;;;;;;;;;1607606;30;21617;-63
2022/07/11 04:01:32;;;;;;;6.65;6.25;;;;;;;;;;1609220;30;21670;-63
2022/07/11 04:02:23;;;;;;;6.55;6.07;;;;;;;;;;1610221;30;21617;-62
2022/07/11 04:03:15;;;;;;;6.88;6.32;;;;;;;;;;1611273;30;21623;-62
2022/07/11 04:04:08;;;;;;;6.63;6.22;;;;;;;;;;1607415;30;22647;-62
2022/07/11 04:05:00;;;;;;;6.47;6.07;;;;;;;;;;1605934;30;21876;-63
2022/07/11 04:05:52;;;;;;;6.93;6.32;;;;;;;;;;1614812;30;21670;-62
2022/07/11 04:06:44;;;;;;;7.32;6.70;;;;;;;;;;1608598;30;22048;-62
2022/07/11 04:07:35;;;;;;;6.43;5.93;;;;;;;;;;1610093;30;21748;-62
2022/07/11 04:08:27;;;;;;;6.47;6.07;;;;;;;;;;1608249;30;21651;-63
2022/07/11 04:09:18;;;;;;;6.63;6.03;;;;;;;;;;1607591;30;21605;-63
2022/07/11 04:10:11;;;;;;;6.90;6.43;;;;;;;;;;1610195;30;22119;-63
2022/07/11 04:11:02;;;;;;;6.32;5.82;;;;;;;;;;1612115;30;21571;-62
2022/07/11 04:11:54;;;;;;;6.82;6.18;;;;;;;;;;1612298;30;22076;-62
2022/07/11 04:12:46;;;;;;;6.57;6.10;;;;;;;;;;1609915;30;21620;-62
2022/07/11 04:13:39;;;;;;;6.40;5.90;;;;;;;;;;1613007;30;21712;-63
2022/07/11 04:14:31;;;;;;;6.47;5.97;;;;;;;;;;1609657;30;21617;-63
2022/07/11 04:15:24;;;;;;;7.28;6.00;;;;;;;;;;1611876;30;22520;-62
2022/07/11 04:16:15;;;;;;;7.22;6.22;;;;;;;;;;1609379;30;22325;-62
2022/07/11 04:17:07;;;;;;;7.82;6.00;;;;;;;;;;1609852;30;21588;-62
2022/07/11 04:17:58;;;;;;;6.53;6.03;;;;;;;;;;1608785;30;21677;-63
2022/07/11 04:18:51;;;;;;;6.88;6.28;;;;;;;;;;1610852;30;22475;-62
2022/07/11 04:19:42;;;;;;;6.28;5.80;;;;;;;;;;1609347;30;22500;-62
2022/07/11 04:20:34;;;;;;;8.27;6.32;;;;;;;;;;1607629;30;22622;-62
2022/07/11 04:21:26;;;;;;;6.43;6.03;;;;;;;;;;1602712;30;21665;-62
2022/07/11 04:22:18;;;;;;;6.90;5.20;;;;;;;;;;1603563;30;21670;-62
2022/07/11 04:23:09;;;;;;;6.70;6.20;;;;;;;;;;1608978;30;21631;-62
2022/07/11 04:24:02;;;;;;;6.40;5.78;;;;;;;;;;1610851;30;21653;-63
2022/07/11 04:24:53;;;;;;;6.10;5.60;;;;;;;;;;1611665;30;22137;-62
2022/07/11 04:25:45;;;;;;;7.10;6.50;;;;;;;;;;1610227;30;21690;-62
2022/07/11 04:26:36;;;;;;;6.68;6.18;;;;;;;;;;1609304;30;21661;-63
2022/07/11 04:27:29;;;;;;;6.18;5.75;;;;;;;;;;1611341;30;22519;-62
2022/07/11 04:28:20;;;;;;;6.30;5.90;;;;;;;;;;1607918;30;22306;-63
2022/07/11 04:29:12;;;;;;;6.57;6.10;;;;;;;;;;1607864;30;22425;-62
2022/07/11 04:30:07;;;;;;;6.13;5.63;;;;;;;;;;1611953;30;21627;-62
2022/07/11 04:30:59;;;;;;;6.35;5.93;;;;;;;;;;1610114;30;21730;-63
2022/07/11 04:31:50;;;;;;;5.63;5.25;;;;;;;;;;1609325;30;21614;-62
2022/07/11 04:32:42;;;;;;;6.13;5.65;;;;;;;;;;1608359;30;22573;-62
2022/07/11 04:33:34;;;;;;;6.20;5.60;;;;;;;;;;1610581;30;21636;-62
2022/07/11 04:34:26;;;;;;;6.15;5.65;;;;;;;;;;1611539;30;22006;-62
2022/07/11 04:35:17;;;;;;;6.00;5.50;;;;;;;;;;1609793;30;21671;-62
2022/07/11 04:36:09;;;;;;;6.00;5.47;;;;;;;;;;1613559;30;21962;-62
2022/07/11 04:37:01;;;;;;;5.93;5.38;;;;;;;;;;1610175;30;21616;-62
2022/07/11 04:37:53;;;;;;;7.22;6.22;;;;;;;;;;1611015;30;21647;-61
2022/07/11 04:38:44;;;;;;;6.18;5.72;;;;;;;;;;1609639;30;22403;-62
2022/07/11 04:39:36;;;;;;;5.75;5.35;;;;;;;;;;1610185;30;21618;-62
2022/07/11 04:40:28;;;;;;;6.25;5.82;;;;;;;;;;1610244;30;21666;-62
2022/07/11 04:41:20;;;;;;;6.53;4.75;;;;;;;;;;1611452;30;21625;-62
2022/07/11 04:42:11;;;;;;;6.15;5.70;;;;;;;;;;1611488;30;21851;-62
2022/07/11 04:43:04;;;;;;;6.10;5.70;;;;;;;;;;1610300;30;21704;-62
2022/07/11 04:43:55;;;;;;;6.78;6.38;;;;;;;;;;1613452;30;22095;-62
2022/07/11 04:44:48;;;;;;;6.07;5.57;;;;;;;;;;1610263;30;21684;-62
2022/07/11 04:45:40;;;;;;;6.28;5.88;;;;;;;;;;1608626;30;21954;-62
2022/07/11 04:46:33;;;;;;;6.18;5.25;;;;;;;;;;1609572;30;22524;-62
2022/07/11 04:47:24;;;;;;;5.43;5.13;;;;;;;;;;1609141;30;21669;-63
2022/07/11 04:48:16;;;;;;;6.60;5.50;;;;;;;;;;1609443;30;22577;-62
2022/07/11 04:49:08;;;;;;;5.82;5.22;;;;;;;;;;1610764;30;21771;-63
2022/07/11 04:49:59;;;;;;;5.63;5.13;;;;;;;;;;1609312;30;22424;-62
2022/07/11 04:50:51;;;;;;;5.35;4.97;;;;;;;;;;1611317;30;21715;-62
2022/07/11 04:51:42;;;;;;;6.50;5.30;;;;;;;;;;1612110;30;21562;-63
2022/07/11 04:52:35;;;;;;;6.10;5.45;;;;;;;;;;1608799;30;21604;-62
2022/07/11 04:53:26;;;;;;;7.68;5.30;;;;;;;;;;1607890;30;22294;-62
2022/07/11 04:54:18;;;;;;;5.78;5.38;;;;;;;;;;1608719;30;22246;-62
2022/07/11 04:55:09;;;;;;;5.63;5.22;;;;;;;;;;1609750;30;21586;-62
2022/07/11 04:56:02;;;;;;;6.75;5.15;;;;;;;;;;1609454;30;21615;-63
2022/07/11 04:56:53;;;;;;;5.80;5.43;;;;;;;;;;1609949;30;22464;-62
2022/07/11 04:57:45;;;;;;;5.82;5.40;;;;;;;;;;1611432;30;21656;-62
2022/07/11 04:58:36;;;;;;;5.90;5.50;;;;;;;;;;1612524;30;21628;-62
2022/07/11 04:59:28;;;;;;;6.00;5.60;;;;;;;;;;1602716;30;21648;-63
2022/07/11 05:00:20;;;;;;;5.82;5.43;;;;;;;;;;1603669;30;22238;-62
2022/07/11 05:01:14;;;;;;;6.07;5.68;;;;;;;;;;1609037;30;21663;-62
2022/07/11 05:02:05;;;;;;;5.68;5.28;;;;;;;;;;1611771;30;22035;-62
2022/07/11 05:02:57;;;;;;;6.50;5.63;;;;;;;;;;1605714;30;21809;-62
2022/07/11 05:03:48;;;;;;;5.97;5.47;;;;;;;;;;1610696;30;21662;-62
2022/07/11 05:04:41;;;;;;;7.13;5.22;;;;;;;;;;1608716;30;21958;-62
2022/07/11 05:05:32;;;;;;;5.32;4.88;;;;;;;;;;1610058;30;22535;-63
2022/07/11 05:06:24;;;;;;;6.43;5.82;;;;;;;;;;1608226;30;22100;-62
2022/07/11 05:07:15;;;;;;;5.55;5.20;;;;;;;;;;1609917;30;21599;-62
2022/07/11 05:08:07;;;;;;;6.20;5.72;;;;;;;;;;1608201;30;21598;-63
2022/07/11 05:08:59;;;;;;;6.25;5.65;;;;;;;;;;1609712;30;22433;-61